sensor_id;sensor_type;location;lat;lon;timestamp;temperature;humidity
64198;SHT31;50512;53.666;9.700;2022-10-16T00:02:23;13.71;95.36
64198;SHT31;50512;53.666;9.700;2022-10-16T00:04:48;13.71;95.57
64198;SHT31;50512;53.666;9.700;2022-10-16T00:07:14;13.69;95.68
64198;SHT31;50512;53.666;9.700;2022-10-16T00:09:39;13.65;95.68
64198;SHT31;50512;53.666;9.700;2022-10-16T00:12:05;13.59;95.69
64198;SHT31;50512;53.666;9.700;2022-10-16T00:14:31;13.63;95.46
64198;SHT31;50512;53.666;9.700;2022-10-16T00:16:57;13.62;95.48
64198;SHT31;50512;53.666;9.700;2022-10-16T00:19:22;13.65;95.36
64198;SHT31;50512;53.666;9.700;2022-10-16T00:21:48;13.62;95.23
64198;SHT31;50512;53.666;9.700;2022-10-16T00:24:13;13.66;94.94
64198;SHT31;50512;53.666;9.700;2022-10-16T00:26:39;13.62;94.89
64198;SHT31;50512;53.666;9.700;2022-10-16T00:29:06;13.66;94.80
64198;SHT31;50512;53.666;9.700;2022-10-16T00:31:32;13.63;94.81
64198;SHT31;50512;53.666;9.700;2022-10-16T00:33:58;13.65;94.65
64198;SHT31;50512;53.666;9.700;2022-10-16T00:36:25;13.69;94.32
64198;SHT31;50512;53.666;9.700;2022-10-16T00:38:51;13.66;93.83
64198;SHT31;50512;53.666;9.700;2022-10-16T00:41:17;13.71;93.71
64198;SHT31;50512;53.666;9.700;2022-10-16T00:43:44;13.73;93.36
64198;SHT31;50512;53.666;9.700;2022-10-16T00:46:15;13.74;93.11
64198;SHT31;50512;53.666;9.700;2022-10-16T00:48:45;13.73;92.85
64198;SHT31;50512;53.666;9.700;2022-10-16T00:51:12;13.71;92.53
64198;SHT31;50512;53.666;9.700;2022-10-16T00:53:39;13.76;92.33
64198;SHT31;50512;53.666;9.700;2022-10-16T00:56:05;13.70;92.28
64198;SHT31;50512;53.666;9.700;2022-10-16T00:58:31;13.67;91.93
64198;SHT31;50512;53.666;9.700;2022-10-16T01:00:56;13.60;91.53
64198;SHT31;50512;53.666;9.700;2022-10-16T01:03:24;13.55;91.76
64198;SHT31;50512;53.666;9.700;2022-10-16T01:06:00;13.50;91.84
64198;SHT31;50512;53.666;9.700;2022-10-16T01:08:34;13.42;92.14
64198;SHT31;50512;53.666;9.700;2022-10-16T01:11:08;13.39;91.98
64198;SHT31;50512;53.666;9.700;2022-10-16T01:13:38;13.35;91.90
64198;SHT31;50512;53.666;9.700;2022-10-16T01:16:09;13.38;91.80
64198;SHT31;50512;53.666;9.700;2022-10-16T01:18:39;13.38;91.90
64198;SHT31;50512;53.666;9.700;2022-10-16T01:21:13;13.35;91.71
64198;SHT31;50512;53.666;9.700;2022-10-16T01:23:48;13.35;91.60
64198;SHT31;50512;53.666;9.700;2022-10-16T01:26:39;13.34;91.58
64198;SHT31;50512;53.666;9.700;2022-10-16T01:29:16;13.28;91.56
64198;SHT31;50512;53.666;9.700;2022-10-16T01:31:47;13.28;91.23
64198;SHT31;50512;53.666;9.700;2022-10-16T01:34:15;13.26;91.30
64198;SHT31;50512;53.666;9.700;2022-10-16T01:36:45;13.23;91.37
64198;SHT31;50512;53.666;9.700;2022-10-16T01:39:13;13.18;91.53
64198;SHT31;50512;53.666;9.700;2022-10-16T01:41:43;13.18;91.34
64198;SHT31;50512;53.666;9.700;2022-10-16T01:44:14;13.15;91.47
64198;SHT31;50512;53.666;9.700;2022-10-16T01:46:43;13.10;91.60
64198;SHT31;50512;53.666;9.700;2022-10-16T01:49:10;13.08;91.65
64198;SHT31;50512;53.666;9.700;2022-10-16T01:51:37;13.02;91.62
64198;SHT31;50512;53.666;9.700;2022-10-16T01:54:05;13.02;91.71
64198;SHT31;50512;53.666;9.700;2022-10-16T01:56:32;12.98;91.60
64198;SHT31;50512;53.666;9.700;2022-10-16T01:59:03;12.95;91.85
64198;SHT31;50512;53.666;9.700;2022-10-16T02:01:31;12.94;91.80
64198;SHT31;50512;53.666;9.700;2022-10-16T02:04:03;12.88;91.95
64198;SHT31;50512;53.666;9.700;2022-10-16T02:06:29;12.84;92.08
64198;SHT31;50512;53.666;9.700;2022-10-16T02:08:54;12.80;92.26
64198;SHT31;50512;53.666;9.700;2022-10-16T02:11:20;12.76;92.22
64198;SHT31;50512;53.666;9.700;2022-10-16T02:13:50;12.76;92.13
64198;SHT31;50512;53.666;9.700;2022-10-16T02:16:17;12.73;92.15
64198;SHT31;50512;53.666;9.700;2022-10-16T02:18:44;12.68;92.13
64198;SHT31;50512;53.666;9.700;2022-10-16T02:21:15;12.67;92.41
64198;SHT31;50512;53.666;9.700;2022-10-16T02:23:45;12.66;92.32
64198;SHT31;50512;53.666;9.700;2022-10-16T02:26:19;12.66;92.23
64198;SHT31;50512;53.666;9.700;2022-10-16T02:28:49;12.72;91.92
64198;SHT31;50512;53.666;9.700;2022-10-16T02:31:21;12.67;91.98
64198;SHT31;50512;53.666;9.700;2022-10-16T02:33:50;12.67;92.05
64198;SHT31;50512;53.666;9.700;2022-10-16T02:36:17;12.67;91.79
64198;SHT31;50512;53.666;9.700;2022-10-16T02:38:42;12.67;91.86
64198;SHT31;50512;53.666;9.700;2022-10-16T02:41:08;12.61;91.79
64198;SHT31;50512;53.666;9.700;2022-10-16T02:43:34;12.60;91.97
64198;SHT31;50512;53.666;9.700;2022-10-16T02:45:59;12.55;91.94
64198;SHT31;50512;53.666;9.700;2022-10-16T02:48:25;12.57;91.80
64198;SHT31;50512;53.666;9.700;2022-10-16T02:50:52;12.47;91.65
64198;SHT31;50512;53.666;9.700;2022-10-16T02:53:17;12.49;91.88
64198;SHT31;50512;53.666;9.700;2022-10-16T02:55:42;12.47;91.94
64198;SHT31;50512;53.666;9.700;2022-10-16T02:58:08;12.40;92.00
64198;SHT31;50512;53.666;9.700;2022-10-16T03:00:34;12.39;92.08
64198;SHT31;50512;53.666;9.700;2022-10-16T03:02:59;12.39;92.07
64198;SHT31;50512;53.666;9.700;2022-10-16T03:05:25;12.35;91.85
64198;SHT31;50512;53.666;9.700;2022-10-16T03:07:52;12.36;91.93
64198;SHT31;50512;53.666;9.700;2022-10-16T03:10:17;12.35;92.05
64198;SHT31;50512;53.666;9.700;2022-10-16T03:12:43;12.28;92.29
64198;SHT31;50512;53.666;9.700;2022-10-16T03:15:09;12.25;92.18
64198;SHT31;50512;53.666;9.700;2022-10-16T03:17:34;12.25;92.18
64198;SHT31;50512;53.666;9.700;2022-10-16T03:20:00;12.21;92.18
64198;SHT31;50512;53.666;9.700;2022-10-16T03:22:25;12.24;92.10
64198;SHT31;50512;53.666;9.700;2022-10-16T03:24:52;12.28;92.09
64198;SHT31;50512;53.666;9.700;2022-10-16T03:27:18;12.21;92.10
64198;SHT31;50512;53.666;9.700;2022-10-16T03:29:43;12.24;92.06
64198;SHT31;50512;53.666;9.700;2022-10-16T03:32:09;12.26;92.14
64198;SHT31;50512;53.666;9.700;2022-10-16T03:34:34;12.28;92.06
64198;SHT31;50512;53.666;9.700;2022-10-16T03:37:00;12.29;91.88
64198;SHT31;50512;53.666;9.700;2022-10-16T03:39:25;12.26;91.83
64198;SHT31;50512;53.666;9.700;2022-10-16T03:41:52;12.29;91.99
64198;SHT31;50512;53.666;9.700;2022-10-16T03:44:17;12.28;92.04
64198;SHT31;50512;53.666;9.700;2022-10-16T03:46:43;12.28;91.92
64198;SHT31;50512;53.666;9.700;2022-10-16T03:49:08;12.29;91.86
64198;SHT31;50512;53.666;9.700;2022-10-16T03:51:34;12.22;92.07
64198;SHT31;50512;53.666;9.700;2022-10-16T03:53:59;12.25;92.11
64198;SHT31;50512;53.666;9.700;2022-10-16T03:56:25;12.25;91.88
64198;SHT31;50512;53.666;9.700;2022-10-16T03:58:52;12.30;91.92
64198;SHT31;50512;53.666;9.700;2022-10-16T04:01:18;12.26;91.82
64198;SHT31;50512;53.666;9.700;2022-10-16T04:03:43;12.28;91.93
64198;SHT31;50512;53.666;9.700;2022-10-16T04:06:09;12.26;91.95
64198;SHT31;50512;53.666;9.700;2022-10-16T04:08:34;12.22;92.17
64198;SHT31;50512;53.666;9.700;2022-10-16T04:11:00;12.24;92.14
64198;SHT31;50512;53.666;9.700;2022-10-16T04:13:25;12.22;92.19
64198;SHT31;50512;53.666;9.700;2022-10-16T04:15:52;12.22;92.25
64198;SHT31;50512;53.666;9.700;2022-10-16T04:18:17;12.22;92.26
64198;SHT31;50512;53.666;9.700;2022-10-16T04:20:43;12.24;92.06
64198;SHT31;50512;53.666;9.700;2022-10-16T04:23:08;12.22;92.13
64198;SHT31;50512;53.666;9.700;2022-10-16T04:25:34;12.22;92.02
64198;SHT31;50512;53.666;9.700;2022-10-16T04:27:59;12.18;92.09
64198;SHT31;50512;53.666;9.700;2022-10-16T04:30:25;12.18;92.11
64198;SHT31;50512;53.666;9.700;2022-10-16T04:32:52;12.14;92.26
64198;SHT31;50512;53.666;9.700;2022-10-16T04:35:18;12.14;92.32
64198;SHT31;50512;53.666;9.700;2022-10-16T04:37:44;12.15;92.33
64198;SHT31;50512;53.666;9.700;2022-10-16T04:40:09;12.12;92.33
64198;SHT31;50512;53.666;9.700;2022-10-16T04:42:35;12.15;92.23
64198;SHT31;50512;53.666;9.700;2022-10-16T04:45:00;12.15;92.41
64198;SHT31;50512;53.666;9.700;2022-10-16T04:47:26;12.15;92.22
64198;SHT31;50512;53.666;9.700;2022-10-16T04:49:52;12.21;92.22
64198;SHT31;50512;53.666;9.700;2022-10-16T04:52:18;12.25;92.24
64198;SHT31;50512;53.666;9.700;2022-10-16T04:54:43;12.26;92.06
64198;SHT31;50512;53.666;9.700;2022-10-16T04:57:09;12.32;92.24
64198;SHT31;50512;53.666;9.700;2022-10-16T04:59:34;12.37;91.68
64198;SHT31;50512;53.666;9.700;2022-10-16T05:02:00;12.40;91.65
64198;SHT31;50512;53.666;9.700;2022-10-16T05:04:25;12.43;91.60
64198;SHT31;50512;53.666;9.700;2022-10-16T05:06:52;12.46;91.43
64198;SHT31;50512;53.666;9.700;2022-10-16T05:09:17;12.50;91.41
64198;SHT31;50512;53.666;9.700;2022-10-16T05:11:43;12.52;91.23
64198;SHT31;50512;53.666;9.700;2022-10-16T05:14:08;12.55;91.41
64198;SHT31;50512;53.666;9.700;2022-10-16T05:16:34;12.55;91.13
64198;SHT31;50512;53.666;9.700;2022-10-16T05:18:59;12.64;91.06
64198;SHT31;50512;53.666;9.700;2022-10-16T05:21:25;12.64;91.18
64198;SHT31;50512;53.666;9.700;2022-10-16T05:23:52;12.63;91.18
64198;SHT31;50512;53.666;9.700;2022-10-16T05:26:18;12.67;91.12
64198;SHT31;50512;53.666;9.700;2022-10-16T05:28:43;12.68;91.17
64198;SHT31;50512;53.666;9.700;2022-10-16T05:31:09;12.67;91.10
64198;SHT31;50512;53.666;9.700;2022-10-16T05:33:35;12.68;91.16
64198;SHT31;50512;53.666;9.700;2022-10-16T05:36:01;12.68;91.25
64198;SHT31;50512;53.666;9.700;2022-10-16T05:38:26;12.70;91.31
64198;SHT31;50512;53.666;9.700;2022-10-16T05:40:53;12.73;91.15
64198;SHT31;50512;53.666;9.700;2022-10-16T05:43:19;12.68;91.42
64198;SHT31;50512;53.666;9.700;2022-10-16T05:45:45;12.68;91.28
64198;SHT31;50512;53.666;9.700;2022-10-16T05:48:18;12.63;91.39
64198;SHT31;50512;53.666;9.700;2022-10-16T05:50:43;12.63;91.75
64198;SHT31;50512;53.666;9.700;2022-10-16T05:53:09;12.60;91.80
64198;SHT31;50512;53.666;9.700;2022-10-16T05:55:34;12.60;91.84
64198;SHT31;50512;53.666;9.700;2022-10-16T05:58:01;12.59;92.05
64198;SHT31;50512;53.666;9.700;2022-10-16T06:00:26;12.55;92.33
64198;SHT31;50512;53.666;9.700;2022-10-16T06:02:52;12.52;92.52
64198;SHT31;50512;53.666;9.700;2022-10-16T06:05:17;12.50;92.62
64198;SHT31;50512;53.666;9.700;2022-10-16T06:07:42;12.52;92.73
64198;SHT31;50512;53.666;9.700;2022-10-16T06:10:08;12.50;92.74
64198;SHT31;50512;53.666;9.700;2022-10-16T06:12:34;12.55;92.87
64198;SHT31;50512;53.666;9.700;2022-10-16T06:15:01;12.53;92.96
64198;SHT31;50512;53.666;9.700;2022-10-16T06:17:26;12.57;92.88
64198;SHT31;50512;53.666;9.700;2022-10-16T06:19:51;12.60;92.83
64198;SHT31;50512;53.666;9.700;2022-10-16T06:22:17;12.60;92.86
64198;SHT31;50512;53.666;9.700;2022-10-16T06:24:42;12.61;92.93
64198;SHT31;50512;53.666;9.700;2022-10-16T06:27:08;12.61;92.97
64198;SHT31;50512;53.666;9.700;2022-10-16T06:29:33;12.60;93.11
64198;SHT31;50512;53.666;9.700;2022-10-16T06:32:00;12.61;93.02
64198;SHT31;50512;53.666;9.700;2022-10-16T06:34:25;12.68;93.03
64198;SHT31;50512;53.666;9.700;2022-10-16T06:36:51;12.73;93.05
64198;SHT31;50512;53.666;9.700;2022-10-16T06:39:16;12.74;93.04
64198;SHT31;50512;53.666;9.700;2022-10-16T06:41:42;12.79;92.93
64198;SHT31;50512;53.666;9.700;2022-10-16T06:44:07;12.84;92.87
64198;SHT31;50512;53.666;9.700;2022-10-16T06:46:33;12.90;92.80
64198;SHT31;50512;53.666;9.700;2022-10-16T06:49:00;12.95;92.59
64198;SHT31;50512;53.666;9.700;2022-10-16T06:51:25;13.08;92.52
64198;SHT31;50512;53.666;9.700;2022-10-16T06:53:53;13.16;92.19
64198;SHT31;50512;53.666;9.700;2022-10-16T06:56:21;13.30;91.96
64198;SHT31;50512;53.666;9.700;2022-10-16T06:58:46;13.39;91.57
64198;SHT31;50512;53.666;9.700;2022-10-16T07:01:13;13.42;91.45
64198;SHT31;50512;53.666;9.700;2022-10-16T07:03:39;13.36;91.40
64198;SHT31;50512;53.666;9.700;2022-10-16T07:06:08;13.36;91.72
64198;SHT31;50512;53.666;9.700;2022-10-16T07:08:34;13.34;91.80
64198;SHT31;50512;53.666;9.700;2022-10-16T07:11:00;13.36;91.69
64198;SHT31;50512;53.666;9.700;2022-10-16T07:13:26;13.43;91.73
64198;SHT31;50512;53.666;9.700;2022-10-16T07:15:51;13.47;91.41
64198;SHT31;50512;53.666;9.700;2022-10-16T07:18:17;13.49;91.57
64198;SHT31;50512;53.666;9.700;2022-10-16T07:20:42;13.56;91.26
64198;SHT31;50512;53.666;9.700;2022-10-16T07:23:09;13.87;90.74
64198;SHT31;50512;53.666;9.700;2022-10-16T07:25:34;14.60;88.06
64198;SHT31;50512;53.666;9.700;2022-10-16T07:28:00;15.45;85.23
64198;SHT31;50512;53.666;9.700;2022-10-16T07:30:25;15.98;82.72
64198;SHT31;50512;53.666;9.700;2022-10-16T07:32:51;15.49;84.32
64198;SHT31;50512;53.666;9.700;2022-10-16T07:35:16;15.66;84.24
64198;SHT31;50512;53.666;9.700;2022-10-16T07:37:44;15.50;84.77
64198;SHT31;50512;53.666;9.700;2022-10-16T07:40:11;15.73;83.54
64198;SHT31;50512;53.666;9.700;2022-10-16T07:42:37;15.28;84.99
64198;SHT31;50512;53.666;9.700;2022-10-16T07:45:03;14.97;85.91
64198;SHT31;50512;53.666;9.700;2022-10-16T07:47:28;14.73;87.34
64198;SHT31;50512;53.666;9.700;2022-10-16T07:49:54;14.48;88.11
64198;SHT31;50512;53.666;9.700;2022-10-16T07:52:19;14.35;88.80
64198;SHT31;50512;53.666;9.700;2022-10-16T07:54:45;14.53;88.90
64198;SHT31;50512;53.666;9.700;2022-10-16T07:57:12;15.21;86.54
64198;SHT31;50512;53.666;9.700;2022-10-16T07:59:37;15.98;84.13
64198;SHT31;50512;53.666;9.700;2022-10-16T08:02:02;16.20;83.16
64198;SHT31;50512;53.666;9.700;2022-10-16T08:04:28;16.31;82.54
64198;SHT31;50512;53.666;9.700;2022-10-16T08:06:53;16.33;82.79
64198;SHT31;50512;53.666;9.700;2022-10-16T08:09:19;16.51;82.14
64198;SHT31;50512;53.666;9.700;2022-10-16T08:11:44;16.68;81.54
64198;SHT31;50512;53.666;9.700;2022-10-16T08:14:11;16.35;82.28
64198;SHT31;50512;53.666;9.700;2022-10-16T08:16:36;16.76;81.65
64198;SHT31;50512;53.666;9.700;2022-10-16T08:19:02;17.11;81.14
64198;SHT31;50512;53.666;9.700;2022-10-16T08:21:28;17.77;78.50
64198;SHT31;50512;53.666;9.700;2022-10-16T08:23:53;17.36;79.04
64198;SHT31;50512;53.666;9.700;2022-10-16T08:26:19;16.93;80.80
64198;SHT31;50512;53.666;9.700;2022-10-16T08:28:44;16.38;82.96
64198;SHT31;50512;53.666;9.700;2022-10-16T08:31:12;16.31;83.25
64198;SHT31;50512;53.666;9.700;2022-10-16T08:33:40;16.63;82.35
64198;SHT31;50512;53.666;9.700;2022-10-16T08:36:06;17.46;79.21
64198;SHT31;50512;53.666;9.700;2022-10-16T08:38:32;18.28;77.45
64198;SHT31;50512;53.666;9.700;2022-10-16T08:41:09;18.76;75.18
64198;SHT31;50512;53.666;9.700;2022-10-16T08:44:07;18.40;76.14
64198;SHT31;50512;53.666;9.700;2022-10-16T08:46:42;18.68;75.26
64198;SHT31;50512;53.666;9.700;2022-10-16T08:49:12;18.24;76.63
64198;SHT31;50512;53.666;9.700;2022-10-16T08:51:38;18.00;76.67
64198;SHT31;50512;53.666;9.700;2022-10-16T08:54:05;18.49;77.06
64198;SHT31;50512;53.666;9.700;2022-10-16T08:56:31;17.90;76.82
64198;SHT31;50512;53.666;9.700;2022-10-16T08:58:58;17.55;78.83
64198;SHT31;50512;53.666;9.700;2022-10-16T09:01:28;17.20;80.01
64198;SHT31;50512;53.666;9.700;2022-10-16T09:04:14;16.59;81.46
64198;SHT31;50512;53.666;9.700;2022-10-16T09:06:46;16.26;82.76
64198;SHT31;50512;53.666;9.700;2022-10-16T09:09:29;16.44;82.58
64198;SHT31;50512;53.666;9.700;2022-10-16T09:12:02;16.66;81.39
64198;SHT31;50512;53.666;9.700;2022-10-16T09:14:46;17.07;80.27
64198;SHT31;50512;53.666;9.700;2022-10-16T09:17:26;17.14;79.77
64198;SHT31;50512;53.666;9.700;2022-10-16T09:20:02;17.15;80.13
64198;SHT31;50512;53.666;9.700;2022-10-16T09:22:30;17.06;80.14
64198;SHT31;50512;53.666;9.700;2022-10-16T09:25:00;17.24;80.16
64198;SHT31;50512;53.666;9.700;2022-10-16T09:27:26;17.43;79.18
64198;SHT31;50512;53.666;9.700;2022-10-16T09:29:51;17.63;77.70
64198;SHT31;50512;53.666;9.700;2022-10-16T09:32:19;17.75;78.17
64198;SHT31;50512;53.666;9.700;2022-10-16T09:34:48;18.07;76.95
64198;SHT31;50512;53.666;9.700;2022-10-16T09:37:18;17.97;76.57
64198;SHT31;50512;53.666;9.700;2022-10-16T09:39:45;17.93;77.90
64198;SHT31;50512;53.666;9.700;2022-10-16T09:42:13;17.46;78.29
64198;SHT31;50512;53.666;9.700;2022-10-16T09:44:39;17.51;79.00
64198;SHT31;50512;53.666;9.700;2022-10-16T09:47:12;17.63;79.02
64198;SHT31;50512;53.666;9.700;2022-10-16T09:49:39;17.65;78.37
64198;SHT31;50512;53.666;9.700;2022-10-16T09:52:18;17.94;77.83
64198;SHT31;50512;53.666;9.700;2022-10-16T09:54:50;17.82;77.20
64198;SHT31;50512;53.666;9.700;2022-10-16T09:57:15;17.93;78.50
64198;SHT31;50512;53.666;9.700;2022-10-16T09:59:46;17.80;77.18
64198;SHT31;50512;53.666;9.700;2022-10-16T10:02:14;17.55;78.05
64198;SHT31;50512;53.666;9.700;2022-10-16T10:04:44;17.53;78.46
64198;SHT31;50512;53.666;9.700;2022-10-16T10:07:19;17.55;79.39
64198;SHT31;50512;53.666;9.700;2022-10-16T10:09:46;17.30;79.21
64198;SHT31;50512;53.666;9.700;2022-10-16T10:12:18;17.27;78.95
64198;SHT31;50512;53.666;9.700;2022-10-16T10:14:46;17.10;79.77
64198;SHT31;50512;53.666;9.700;2022-10-16T10:17:15;17.13;79.44
64198;SHT31;50512;53.666;9.700;2022-10-16T10:19:46;17.15;78.78
64198;SHT31;50512;53.666;9.700;2022-10-16T10:22:40;17.61;78.57
64198;SHT31;50512;53.666;9.700;2022-10-16T10:25:22;18.03;79.55
64198;SHT31;50512;53.666;9.700;2022-10-16T10:27:59;18.06;77.64
64198;SHT31;50512;53.666;9.700;2022-10-16T10:30:35;17.79;77.48
64198;SHT31;50512;53.666;9.700;2022-10-16T10:33:13;17.68;77.55
64198;SHT31;50512;53.666;9.700;2022-10-16T10:35:47;17.77;77.37
64198;SHT31;50512;53.666;9.700;2022-10-16T10:38:29;17.77;77.16
64198;SHT31;50512;53.666;9.700;2022-10-16T10:41:04;17.91;76.03
64198;SHT31;50512;53.666;9.700;2022-10-16T10:43:46;18.31;77.23
64198;SHT31;50512;53.666;9.700;2022-10-16T10:46:22;18.38;76.95
64198;SHT31;50512;53.666;9.700;2022-10-16T10:48:58;18.25;75.11
64198;SHT31;50512;53.666;9.700;2022-10-16T10:51:31;18.27;74.95
64198;SHT31;50512;53.666;9.700;2022-10-16T10:54:09;18.14;74.63
64198;SHT31;50512;53.666;9.700;2022-10-16T10:56:47;18.15;74.23
64198;SHT31;50512;53.666;9.700;2022-10-16T11:02:25;18.10;75.41
64198;SHT31;50512;53.666;9.700;2022-10-16T11:05:19;17.93;75.08
64198;SHT31;50512;53.666;9.700;2022-10-16T11:07:50;17.94;75.45
64198;SHT31;50512;53.666;9.700;2022-10-16T11:10:22;17.93;75.59
64198;SHT31;50512;53.666;9.700;2022-10-16T11:12:52;17.90;74.88
64198;SHT31;50512;53.666;9.700;2022-10-16T11:15:21;18.10;76.22
64198;SHT31;50512;53.666;9.700;2022-10-16T11:17:52;18.10;74.34
64198;SHT31;50512;53.666;9.700;2022-10-16T11:20:21;18.18;74.95
64198;SHT31;50512;53.666;9.700;2022-10-16T11:22:51;18.17;73.65
64198;SHT31;50512;53.666;9.700;2022-10-16T11:25:20;18.06;73.83
64198;SHT31;50512;53.666;9.700;2022-10-16T11:27:50;17.93;74.02
64198;SHT31;50512;53.666;9.700;2022-10-16T11:30:20;17.94;75.05
64198;SHT31;50512;53.666;9.700;2022-10-16T11:32:54;17.94;74.65
64198;SHT31;50512;53.666;9.700;2022-10-16T11:35:25;17.97;74.75
64198;SHT31;50512;53.666;9.700;2022-10-16T11:37:57;17.91;73.50
64198;SHT31;50512;53.666;9.700;2022-10-16T11:40:28;17.79;74.16
64198;SHT31;50512;53.666;9.700;2022-10-16T11:42:57;17.82;75.16
64198;SHT31;50512;53.666;9.700;2022-10-16T11:45:30;17.98;74.28
64198;SHT31;50512;53.666;9.700;2022-10-16T11:48:02;17.97;72.93
64198;SHT31;50512;53.666;9.700;2022-10-16T11:50:32;18.17;71.97
64198;SHT31;50512;53.666;9.700;2022-10-16T11:53:04;18.53;71.45
64198;SHT31;50512;53.666;9.700;2022-10-16T11:55:37;18.70;72.09
64198;SHT31;50512;53.666;9.700;2022-10-16T11:58:07;18.76;72.92
64198;SHT31;50512;53.666;9.700;2022-10-16T12:00:40;18.52;71.03
64198;SHT31;50512;53.666;9.700;2022-10-16T12:03:15;18.69;72.10
64198;SHT31;50512;53.666;9.700;2022-10-16T12:05:55;18.87;70.11
64198;SHT31;50512;53.666;9.700;2022-10-16T12:08:23;19.02;70.33
64198;SHT31;50512;53.666;9.700;2022-10-16T12:10:50;19.02;66.48
64198;SHT31;50512;53.666;9.700;2022-10-16T12:16:19;19.02;65.63
64198;SHT31;50512;53.666;9.700;2022-10-16T12:18:46;19.04;67.93
64198;SHT31;50512;53.666;9.700;2022-10-16T12:21:14;18.93;67.83
64198;SHT31;50512;53.666;9.700;2022-10-16T12:23:48;18.79;68.23
64198;SHT31;50512;53.666;9.700;2022-10-16T12:26:24;18.53;69.14
64198;SHT31;50512;53.666;9.700;2022-10-16T12:28:49;18.42;66.96
64198;SHT31;50512;53.666;9.700;2022-10-16T12:31:15;18.51;69.17
64198;SHT31;50512;53.666;9.700;2022-10-16T12:33:42;18.63;67.91
64198;SHT31;50512;53.666;9.700;2022-10-16T12:36:11;18.62;68.64
64198;SHT31;50512;53.666;9.700;2022-10-16T12:38:47;18.68;69.00
64198;SHT31;50512;53.666;9.700;2022-10-16T12:41:26;18.62;68.13
64198;SHT31;50512;53.666;9.700;2022-10-16T12:43:51;18.59;70.07
64198;SHT31;50512;53.666;9.700;2022-10-16T12:46:23;18.55;68.71
64198;SHT31;50512;53.666;9.700;2022-10-16T12:48:50;18.62;68.32
64198;SHT31;50512;53.666;9.700;2022-10-16T12:51:33;18.55;66.07
64198;SHT31;50512;53.666;9.700;2022-10-16T12:53:59;18.65;67.49
64198;SHT31;50512;53.666;9.700;2022-10-16T12:56:35;18.52;68.24
64198;SHT31;50512;53.666;9.700;2022-10-16T12:59:12;18.45;69.56
64198;SHT31;50512;53.666;9.700;2022-10-16T13:01:54;18.40;69.58
64198;SHT31;50512;53.666;9.700;2022-10-16T13:04:39;18.38;70.52
64198;SHT31;50512;53.666;9.700;2022-10-16T13:07:22;18.37;69.81
64198;SHT31;50512;53.666;9.700;2022-10-16T13:10:00;18.18;67.91
64198;SHT31;50512;53.666;9.700;2022-10-16T13:12:52;18.18;69.11
64198;SHT31;50512;53.666;9.700;2022-10-16T13:15:36;18.07;67.30
64198;SHT31;50512;53.666;9.700;2022-10-16T13:18:11;17.90;67.70
64198;SHT31;50512;53.666;9.700;2022-10-16T13:20:51;17.83;67.99
64198;SHT31;50512;53.666;9.700;2022-10-16T13:23:24;17.73;68.40
64198;SHT31;50512;53.666;9.700;2022-10-16T13:26:03;17.62;69.59
64198;SHT31;50512;53.666;9.700;2022-10-16T13:28:37;17.46;68.45
64198;SHT31;50512;53.666;9.700;2022-10-16T13:31:03;17.31;70.91
64198;SHT31;50512;53.666;9.700;2022-10-16T13:33:32;17.18;72.05
64198;SHT31;50512;53.666;9.700;2022-10-16T13:35:58;17.03;72.93
64198;SHT31;50512;53.666;9.700;2022-10-16T13:38:24;17.00;73.01
64198;SHT31;50512;53.666;9.700;2022-10-16T13:40:53;16.94;73.49
64198;SHT31;50512;53.666;9.700;2022-10-16T13:43:22;16.90;73.52
64198;SHT31;50512;53.666;9.700;2022-10-16T13:45:58;16.90;73.90
64198;SHT31;50512;53.666;9.700;2022-10-16T13:48:23;16.88;74.31
64198;SHT31;50512;53.666;9.700;2022-10-16T13:50:58;16.91;73.74
64198;SHT31;50512;53.666;9.700;2022-10-16T13:53:23;16.80;74.54
64198;SHT31;50512;53.666;9.700;2022-10-16T13:55:49;16.75;75.43
64198;SHT31;50512;53.666;9.700;2022-10-16T13:58:14;16.65;75.64
64198;SHT31;50512;53.666;9.700;2022-10-16T14:00:42;16.55;76.05
64198;SHT31;50512;53.666;9.700;2022-10-16T14:03:19;16.58;76.78
64198;SHT31;50512;53.666;9.700;2022-10-16T14:05:48;16.58;76.25
64198;SHT31;50512;53.666;9.700;2022-10-16T14:08:14;16.60;75.69
64198;SHT31;50512;53.666;9.700;2022-10-16T14:10:40;16.58;74.49
64198;SHT31;50512;53.666;9.700;2022-10-16T14:13:07;16.73;74.92
64198;SHT31;50512;53.666;9.700;2022-10-16T14:15:34;16.75;73.22
64198;SHT31;50512;53.666;9.700;2022-10-16T14:18:00;16.80;73.51
64198;SHT31;50512;53.666;9.700;2022-10-16T14:20:29;16.73;73.11
64198;SHT31;50512;53.666;9.700;2022-10-16T14:23:00;16.70;75.00
64198;SHT31;50512;53.666;9.700;2022-10-16T14:25:29;16.65;73.09
64198;SHT31;50512;53.666;9.700;2022-10-16T14:28:02;16.77;73.38
64198;SHT31;50512;53.666;9.700;2022-10-16T14:30:32;16.77;72.59
64198;SHT31;50512;53.666;9.700;2022-10-16T14:33:00;16.76;72.82
64198;SHT31;50512;53.666;9.700;2022-10-16T14:35:30;16.76;73.31
64198;SHT31;50512;53.666;9.700;2022-10-16T14:37:57;16.66;73.21
64198;SHT31;50512;53.666;9.700;2022-10-16T14:40:25;16.65;73.58
64198;SHT31;50512;53.666;9.700;2022-10-16T14:42:51;16.58;73.92
64198;SHT31;50512;53.666;9.700;2022-10-16T14:45:19;16.60;71.80
64198;SHT31;50512;53.666;9.700;2022-10-16T14:47:49;16.55;72.40
64198;SHT31;50512;53.666;9.700;2022-10-16T14:50:15;16.52;72.82
64198;SHT31;50512;53.666;9.700;2022-10-16T14:52:42;16.44;73.66
64198;SHT31;50512;53.666;9.700;2022-10-16T14:55:09;16.41;72.17
64198;SHT31;50512;53.666;9.700;2022-10-16T14:57:36;16.29;73.89
64198;SHT31;50512;53.666;9.700;2022-10-16T15:00:03;16.29;73.17
64198;SHT31;50512;53.666;9.700;2022-10-16T15:02:30;16.18;73.47
64198;SHT31;50512;53.666;9.700;2022-10-16T15:04:56;16.11;74.22
64198;SHT31;50512;53.666;9.700;2022-10-16T15:07:21;16.05;74.62
64198;SHT31;50512;53.666;9.700;2022-10-16T15:09:48;15.97;75.42
64198;SHT31;50512;53.666;9.700;2022-10-16T15:12:14;15.91;74.91
64198;SHT31;50512;53.666;9.700;2022-10-16T15:14:39;15.80;74.77
64198;SHT31;50512;53.666;9.700;2022-10-16T15:17:05;15.77;75.25
64198;SHT31;50512;53.666;9.700;2022-10-16T15:19:30;15.89;73.33
64198;SHT31;50512;53.666;9.700;2022-10-16T15:21:56;15.66;74.87
64198;SHT31;50512;53.666;9.700;2022-10-16T15:24:21;15.67;74.32
64198;SHT31;50512;53.666;9.700;2022-10-16T15:26:48;15.62;74.56
64198;SHT31;50512;53.666;9.700;2022-10-16T15:29:13;15.48;74.95
64198;SHT31;50512;53.666;9.700;2022-10-16T15:31:39;15.53;75.45
64198;SHT31;50512;53.666;9.700;2022-10-16T15:34:05;15.42;76.24
64198;SHT31;50512;53.666;9.700;2022-10-16T15:36:31;15.28;76.81
64198;SHT31;50512;53.666;9.700;2022-10-16T15:38:57;15.18;76.25
64198;SHT31;50512;53.666;9.700;2022-10-16T15:41:23;15.07;76.42
64198;SHT31;50512;53.666;9.700;2022-10-16T15:43:50;14.90;77.32
64198;SHT31;50512;53.666;9.700;2022-10-16T15:46:18;14.87;77.00